Weather

Webcam

Metar / TAF

Zurich

  • LSZH 200020Z AUTO 14003KT 9999 NCD 07/06 Q1023 NOSIG

  • TAF AMD LSZH 200042Z 2000/2106 VRB02KT 9000 NSC TX20/2014Z TN05/2004Z TN11/2105Z PROB30 TEMPO 2003/2007 4000 MIFG BECMG 2007/2009 CAVOK BECMG 2009/2012 23010KT PROB30 TEMPO 2013/2019 9999 SCT070 BECMG 2019/2022 9999 BKN060 TEMPO 2100/2106 SHRA TEMPO 2103/2106 24015G28KT

Dübendorf

  • LSMD 200050Z AUTO VRB03KT 9999NDV NCD 06/06 Q1022 RMK

  • TAF LSMD 191625Z 1917/2023 VRB02KT 9999 BKN072 PROB40 1922/2007 4000 MIFG NSC PROB30 1922/2007 2500 BCFG FEW002 BECMG 2007/2009 CAVOK BECMG 2013/2015 25010KT 9999 SCT100

St. Gallen

  • LSZR 200050Z AUTO 00000KT 9999 R10/0150D FG NCD 06/06 Q1022

  • TAF AMD LSZR 222054Z 2220/2224 CNL

Bern

  • LSZB 200050Z AUTO VRB01KT 9000 NCD 06/05 Q1023

  • TAF AMD TAF AMD LSZB 222054Z 2220/2224 CNL

Locarno

  • LSZL 200050Z AUTO 00000KT 0900NDV R08/1100VP2000N R26/P2000N -SHRA BCFG NCD 07/07 Q1027 RMK

  • TAF AMD TAF AMD LSZL 150713Z 1509/1521 VRB03KT 9999 SCT050

Samedan

  • LSZS 200050Z AUTO 22002KT 9999 NCD M01/M03 Q1028

  • TAF AMD LSZS 222054Z 2220/2224 CNL

Geneve

  • LSGG 200050Z AUTO VRB01KT 9999 NCD 08/07 Q1023 NOSIG

  • TAF TAF LSGG 192025Z 1921/2103 24003KT CAVOK TX18/2015Z TN09/2005Z PROB30 TEMPO 2002/2007 4500 BCFG NSC BECMG 2010/2013 23015G25KT 9999 FEW050 SCT080 BECMG 2022/2101 RA

Weather-Charts



Wind at FL50: 06:00z, 09:00z, 12:00z, 15:00z and 18:00z